Terminal Aerodrome Forecast
Issued by NWS Caribou, ME

Home | Current Version | Previous Version | Text Only | Print | Product List | Glossary On
Versions: 1 2 3 4 5 6 7 8 9 10 11 12 13 14 15 16 17 18 19 20 21 22 23 24 25 26 27 28 29 30 31 32 33 34 35 36
142
FTUS41 KCAR 291720
TAFCAR
TAF
KCAR 291720Z 2918/3018 25012G26KT P6SM BKN050
     FM292100 29013G28KT P6SM BKN045
     FM292300 31014G29KT P6SM SCT050
     FM301100 32011G22KT P6SM BKN030
     FM301300 33011G22KT P6SM SCT250
     FM301500 33009KT P6SM FEW250=

USA.gov is the U.S. government's official web portal to all federal, state and local government web resources and services.